createdAt,value
2018-07-13T00:02:35.072Z,4.97
2018-07-13T00:05:10.422Z,4.87
2018-07-13T00:07:45.917Z,5.00
2018-07-13T00:10:21.191Z,5.50
2018-07-13T00:12:56.448Z,5.80
2018-07-13T00:15:31.711Z,5.03
2018-07-13T00:18:07.388Z,5.57
2018-07-13T00:20:42.495Z,5.50
2018-07-13T00:23:18.147Z,5.27
2018-07-13T00:25:53.714Z,4.70
2018-07-13T00:28:28.947Z,4.80
2018-07-13T00:31:04.336Z,4.87
2018-07-13T00:33:39.510Z,5.40
2018-07-13T00:36:15.075Z,5.13
2018-07-13T00:38:50.295Z,4.90
2018-07-13T00:41:25.592Z,5.37
2018-07-13T00:44:00.992Z,6.00
2018-07-13T00:46:36.160Z,5.63
2018-07-13T00:49:11.550Z,5.93
2018-07-13T00:51:46.857Z,6.03
2018-07-13T00:54:22.180Z,5.77
2018-07-13T00:56:57.388Z,6.13
2018-07-13T00:59:32.905Z,5.70
2018-07-13T01:02:08.491Z,5.70
2018-07-13T01:04:43.630Z,5.20
2018-07-13T01:07:18.836Z,4.83
2018-07-13T01:09:53.780Z,5.50
2018-07-13T01:12:29.049Z,5.93
2018-07-13T01:15:04.309Z,5.00
2018-07-13T01:17:39.565Z,5.53
2018-07-13T01:20:14.765Z,5.63
2018-07-13T01:22:49.928Z,5.60
2018-07-13T01:25:25.453Z,5.70
2018-07-13T01:28:00.797Z,5.67
2018-07-13T01:30:36.413Z,5.43
2018-07-13T01:33:11.790Z,5.50
2018-07-13T01:35:47.411Z,5.67
2018-07-13T01:38:22.881Z,5.50
2018-07-13T01:40:58.173Z,6.50
2018-07-13T01:43:33.491Z,6.77
2018-07-13T01:46:08.830Z,5.90
2018-07-13T01:48:44.178Z,6.03
2018-07-13T01:51:19.871Z,5.93
2018-07-13T01:53:55.215Z,6.90
2018-07-13T01:56:30.502Z,6.40
2018-07-13T01:59:06.120Z,7.37
2018-07-13T02:01:40.948Z,6.80
2018-07-13T02:04:16.244Z,8.00
2018-07-13T02:06:51.804Z,6.70
2018-07-13T02:09:26.690Z,7.00
2018-07-13T02:12:01.961Z,6.97
2018-07-13T02:14:37.332Z,6.37
2018-07-13T02:17:12.588Z,7.23
2018-07-13T02:19:48.531Z,7.77
2018-07-13T02:22:23.756Z,7.40
2018-07-13T02:24:58.895Z,7.10
2018-07-13T02:27:34.154Z,7.70
2018-07-13T02:30:09.480Z,7.50
2018-07-13T02:32:44.812Z,6.90
2018-07-13T02:35:20.249Z,6.70
2018-07-13T02:37:55.532Z,8.03
2018-07-13T02:40:30.752Z,7.77
2018-07-13T02:43:06.177Z,7.53
2018-07-13T02:45:41.480Z,7.50
2018-07-13T02:48:17.088Z,8.63
2018-07-13T02:50:52.478Z,8.13
2018-07-13T02:53:27.597Z,8.80
2018-07-13T02:56:03.100Z,6.87
2018-07-13T02:58:38.484Z,7.50
2018-07-13T03:01:13.914Z,7.67
2018-07-13T03:03:49.133Z,7.80
2018-07-13T03:06:24.592Z,7.47
2018-07-13T03:08:59.963Z,8.07
2018-07-13T03:11:35.201Z,8.07
2018-07-13T03:14:10.618Z,7.50
2018-07-13T03:16:45.965Z,7.53
2018-07-13T03:19:21.696Z,7.40
2018-07-13T03:21:56.822Z,6.73
2018-07-13T03:24:32.102Z,7.70
2018-07-13T03:27:07.485Z,8.30
2018-07-13T03:29:42.690Z,8.10
2018-07-13T03:32:17.875Z,8.63
2018-07-13T03:34:53.207Z,8.27
2018-07-13T03:37:28.532Z,8.60
2018-07-13T03:40:03.744Z,9.77
2018-07-13T03:42:39.031Z,33.93
2018-07-13T03:45:14.146Z,9.90
2018-07-13T03:47:49.472Z,8.63
2018-07-13T03:50:24.683Z,8.60
2018-07-13T03:52:59.560Z,8.57
2018-07-13T03:55:34.878Z,8.40
2018-07-13T03:58:10.212Z,8.37
2018-07-13T04:00:45.468Z,9.20
2018-07-13T04:03:22.912Z,8.70
2018-07-13T04:05:59.170Z,9.10
2018-07-13T04:08:34.542Z,8.77
2018-07-13T04:11:09.690Z,8.80
2018-07-13T04:13:44.992Z,9.80
2018-07-13T04:16:20.119Z,8.80
2018-07-13T04:18:55.559Z,8.73
2018-07-13T04:21:31.031Z,8.67
2018-07-13T04:24:06.288Z,9.50
2018-07-13T04:26:43.759Z,9.23
2018-07-13T04:29:19.205Z,9.03
2018-07-13T04:31:54.556Z,9.10
2018-07-13T04:34:29.967Z,9.37
2018-07-13T04:37:05.163Z,8.70
2018-07-13T04:39:40.654Z,8.40
2018-07-13T04:42:15.973Z,10.17
2018-07-13T04:44:51.323Z,10.20
2018-07-13T04:47:26.737Z,9.40
2018-07-13T04:50:02.006Z,9.00
2018-07-13T04:52:37.581Z,8.13
2018-07-13T04:55:12.764Z,9.50
2018-07-13T04:57:51.930Z,9.73
2018-07-13T05:00:26.835Z,9.77
2018-07-13T05:03:02.408Z,10.50
2018-07-13T05:05:37.693Z,10.50
2018-07-13T05:08:13.196Z,11.50
2018-07-13T05:10:48.592Z,9.97
2018-07-13T05:13:23.828Z,9.20
2018-07-13T05:15:59.519Z,10.43
2018-07-13T05:18:34.795Z,10.10
2018-07-13T05:21:10.155Z,10.50
2018-07-13T05:23:45.338Z,10.10
2018-07-13T05:26:20.773Z,10.30
2018-07-13T05:28:56.180Z,10.27
2018-07-13T05:31:31.672Z,11.60
2018-07-13T05:34:07.309Z,11.53
2018-07-13T05:36:42.119Z,12.90
2018-07-13T05:39:17.555Z,10.70
2018-07-13T05:41:52.923Z,10.43
2018-07-13T05:44:28.399Z,10.37
2018-07-13T05:47:03.667Z,12.40
2018-07-13T05:49:39.153Z,12.40
2018-07-13T05:52:14.795Z,11.20
2018-07-13T05:54:50.420Z,11.90
2018-07-13T05:57:25.593Z,10.97
2018-07-13T06:00:00.941Z,11.47
2018-07-13T06:02:35.961Z,11.33
2018-07-13T06:05:11.986Z,10.90
2018-07-13T06:07:47.203Z,12.23
2018-07-13T06:10:22.500Z,11.50
2018-07-13T06:12:57.825Z,11.60
2018-07-13T06:15:33.277Z,10.63
2018-07-13T06:18:08.834Z,11.67
2018-07-13T06:20:44.143Z,11.97
2018-07-13T06:23:19.489Z,11.17
2018-07-13T06:25:54.892Z,11.17
2018-07-13T06:28:30.090Z,12.13
2018-07-13T06:31:05.244Z,11.73
2018-07-13T06:33:40.578Z,11.00
2018-07-13T06:36:15.830Z,10.13
2018-07-13T06:38:51.324Z,10.50
2018-07-13T06:41:26.795Z,9.70
2018-07-13T06:44:02.327Z,10.30
2018-07-13T06:46:42.882Z,11.30
2018-07-13T06:49:18.093Z,9.50
2018-07-13T06:51:53.276Z,9.53
2018-07-13T06:54:28.559Z,9.93
2018-07-13T06:57:03.396Z,9.27
2018-07-13T06:59:38.596Z,9.97
2018-07-13T07:02:23.810Z,10.70
2018-07-13T07:06:04.832Z,10.23
2018-07-13T07:08:45.213Z,9.80
2018-07-13T07:11:20.652Z,9.50
2018-07-13T07:13:55.801Z,8.13
2018-07-13T07:16:31.156Z,7.30
2018-07-13T07:19:06.251Z,7.60
2018-07-13T07:21:41.570Z,7.73
2018-07-13T07:24:17.065Z,6.43
2018-07-13T07:26:52.450Z,5.20
2018-07-13T07:29:27.740Z,5.53
2018-07-13T07:32:02.897Z,5.40
2018-07-13T07:34:37.739Z,5.37
2018-07-13T07:37:13.056Z,6.53
2018-07-13T07:39:48.972Z,6.90
2018-07-13T07:42:24.268Z,7.53
2018-07-13T07:44:59.242Z,6.73
2018-07-13T07:47:34.556Z,5.97
2018-07-13T07:50:09.966Z,5.23
2018-07-13T07:52:45.332Z,4.83
2018-07-13T07:55:20.520Z,4.00
2018-07-13T07:57:55.720Z,5.00
2018-07-13T08:00:30.958Z,4.60
2018-07-13T08:03:06.505Z,5.40
2018-07-13T08:05:41.812Z,4.37
2018-07-13T08:08:17.300Z,4.17
2018-07-13T08:10:52.747Z,4.73
2018-07-13T08:13:28.173Z,4.40
2018-07-13T08:16:03.518Z,4.87
2018-07-13T08:18:39.027Z,4.80
2018-07-13T08:21:14.340Z,4.93
2018-07-13T08:23:49.717Z,4.10
2018-07-13T08:26:25.096Z,4.90
2018-07-13T08:29:00.395Z,4.40
2018-07-13T08:31:35.530Z,5.67
2018-07-13T08:34:10.681Z,5.90
2018-07-13T08:36:45.933Z,7.60
2018-07-13T08:39:21.583Z,8.60
2018-07-13T08:41:56.945Z,7.67
2018-07-13T08:44:32.368Z,8.70
2018-07-13T08:47:07.952Z,9.90
2018-07-13T08:49:43.211Z,9.53
2018-07-13T08:52:18.409Z,10.80
2018-07-13T08:54:53.739Z,8.00
2018-07-13T08:57:28.956Z,10.10
2018-07-13T09:00:04.885Z,10.70
2018-07-13T09:02:40.777Z,10.80
2018-07-13T09:05:16.145Z,11.10
2018-07-13T09:07:51.506Z,13.13
2018-07-13T09:10:26.942Z,11.50
2018-07-13T09:13:02.302Z,12.30
2018-07-13T09:15:37.483Z,9.37
2018-07-13T09:18:12.854Z,8.27
2018-07-13T09:20:48.522Z,9.97
2018-07-13T09:23:23.650Z,8.00
2018-07-13T09:25:59.253Z,8.43
2018-07-13T09:28:34.327Z,9.40
2018-07-13T09:31:09.654Z,8.33
2018-07-13T09:33:45.091Z,7.37
2018-07-13T09:36:20.580Z,6.90
2018-07-13T09:38:56.002Z,7.73
2018-07-13T09:41:31.343Z,7.17
2018-07-13T09:44:06.471Z,7.40
2018-07-13T09:46:42.066Z,7.17
2018-07-13T09:49:17.092Z,7.47
2018-07-13T09:51:52.784Z,6.20
2018-07-13T09:54:28.563Z,6.43
2018-07-13T09:57:03.881Z,5.60
2018-07-13T09:59:39.163Z,6.10
2018-07-13T10:02:14.607Z,4.67
2018-07-13T10:04:50.136Z,4.60
2018-07-13T10:07:25.453Z,4.27
2018-07-13T10:10:01.018Z,4.50
2018-07-13T10:12:36.218Z,4.87
2018-07-13T10:15:11.579Z,3.60
2018-07-13T10:17:47.246Z,4.30
2018-07-13T10:20:22.443Z,4.63
2018-07-13T10:22:58.014Z,4.13
2018-07-13T10:25:33.621Z,3.60
2018-07-13T10:28:08.744Z,3.60
2018-07-13T10:30:44.179Z,3.60
2018-07-13T10:33:20.817Z,3.67
2018-07-13T10:35:57.843Z,3.40
2018-07-13T10:38:33.361Z,4.33
2018-07-13T10:41:08.764Z,4.23
2018-07-13T10:43:44.002Z,4.17
2018-07-13T10:46:19.468Z,5.30
2018-07-13T10:48:55.446Z,5.00
2018-07-13T10:51:30.812Z,6.20
2018-07-13T10:54:06.011Z,5.70
2018-07-13T10:56:41.334Z,5.83
2018-07-13T10:59:16.783Z,5.00
2018-07-13T11:01:51.943Z,4.27
2018-07-13T11:04:27.247Z,4.70
2018-07-13T11:07:02.168Z,4.53
2018-07-13T11:09:37.379Z,3.70
2018-07-13T11:12:12.819Z,3.63
2018-07-13T11:14:48.644Z,3.43
2018-07-13T11:17:23.956Z,4.40
2018-07-13T11:19:59.478Z,3.83
2018-07-13T11:22:34.714Z,4.27
2018-07-13T11:25:09.498Z,4.27
2018-07-13T11:27:44.892Z,4.13
2018-07-13T11:30:20.324Z,4.17
2018-07-13T11:32:55.651Z,4.23
2018-07-13T11:35:30.911Z,4.60
2018-07-13T11:38:06.933Z,3.80
2018-07-13T11:40:42.231Z,4.10
2018-07-13T11:43:17.646Z,3.77
2018-07-13T11:45:52.723Z,3.80
2018-07-13T11:48:28.067Z,4.23
2018-07-13T11:51:03.483Z,3.47
2018-07-13T11:53:38.663Z,3.53
2018-07-13T11:56:13.992Z,4.27
2018-07-13T11:58:49.340Z,3.70
2018-07-13T12:01:24.724Z,3.90
2018-07-13T12:04:00.695Z,3.80
2018-07-13T12:06:35.983Z,4.03
2018-07-13T12:09:11.554Z,3.60
2018-07-13T12:11:46.763Z,3.70
2018-07-13T12:14:22.453Z,3.57
2018-07-13T12:16:57.612Z,3.63
2018-07-13T12:19:32.957Z,3.33
2018-07-13T12:22:08.327Z,4.07
2018-07-13T12:24:43.680Z,3.47
2018-07-13T12:27:18.910Z,3.20
2018-07-13T12:29:54.297Z,3.20
2018-07-13T12:32:29.882Z,3.67
2018-07-13T12:35:05.807Z,3.03
2018-07-13T12:37:41.659Z,3.13
2018-07-13T12:40:17.184Z,3.50
2018-07-13T12:42:52.499Z,3.20
2018-07-13T12:45:27.675Z,3.30
2018-07-13T12:48:03.227Z,3.07
2018-07-13T12:50:38.418Z,3.10
2018-07-13T12:53:14.188Z,2.90
2018-07-13T12:55:49.389Z,3.07
2018-07-13T12:58:24.755Z,3.33
2018-07-13T13:01:00.300Z,2.73
2018-07-13T13:03:35.841Z,3.07
2018-07-13T13:06:10.926Z,3.00
2018-07-13T13:08:46.204Z,2.80
2018-07-13T13:11:21.391Z,2.67
2018-07-13T13:13:56.617Z,2.87
2018-07-13T13:16:31.936Z,2.53
2018-07-13T13:19:07.036Z,2.80
2018-07-13T13:21:42.946Z,2.80
2018-07-13T13:24:17.934Z,2.50
2018-07-13T13:26:52.921Z,2.93
2018-07-13T13:29:28.123Z,3.00
2018-07-13T13:32:03.487Z,2.63
2018-07-13T13:34:39.026Z,3.63
2018-07-13T13:37:14.351Z,3.57
2018-07-13T13:39:49.852Z,3.20
2018-07-13T13:42:25.376Z,3.10
2018-07-13T13:45:00.379Z,3.03
2018-07-13T13:47:42.610Z,3.00
2018-07-13T13:50:17.863Z,3.37
2018-07-13T13:52:53.093Z,3.50
2018-07-13T13:55:28.260Z,3.10
2018-07-13T13:58:03.471Z,2.80
2018-07-13T14:00:38.893Z,2.70
2018-07-13T14:03:14.377Z,2.63
2018-07-13T14:05:49.789Z,3.00
2018-07-13T14:08:25.175Z,2.33
2018-07-13T14:11:00.579Z,3.33
2018-07-13T14:13:36.159Z,3.57
2018-07-13T14:16:11.745Z,3.37
2018-07-13T14:18:46.907Z,3.10
2018-07-13T14:21:22.099Z,2.97
2018-07-13T14:23:57.564Z,2.70
2018-07-13T14:26:32.856Z,2.97
2018-07-13T14:29:08.380Z,2.60
2018-07-13T14:31:43.791Z,3.30
2018-07-13T14:34:19.090Z,3.57
2018-07-13T14:36:54.656Z,3.23
2018-07-13T14:39:29.959Z,2.90
2018-07-13T14:42:05.157Z,3.17
2018-07-13T14:44:40.336Z,3.10
2018-07-13T14:47:15.502Z,2.70
2018-07-13T14:49:50.661Z,3.10
2018-07-13T14:52:26.326Z,3.03
2018-07-13T14:55:01.614Z,3.73
2018-07-13T14:57:36.916Z,3.20
2018-07-13T15:00:12.172Z,2.90
2018-07-13T15:02:47.379Z,3.07
2018-07-13T15:05:23.145Z,3.20
2018-07-13T15:07:58.647Z,3.27
2018-07-13T15:10:33.991Z,2.90
2018-07-13T15:13:09.265Z,2.87
2018-07-13T15:15:44.611Z,2.60
2018-07-13T15:18:21.659Z,3.73
2018-07-13T15:20:57.759Z,3.23
2018-07-13T15:23:33.147Z,3.67
2018-07-13T15:26:08.259Z,3.40
2018-07-13T15:28:43.491Z,3.40
2018-07-13T15:31:19.883Z,3.50
2018-07-13T15:33:55.177Z,3.40
2018-07-13T15:36:30.452Z,3.10
2018-07-13T15:39:06.736Z,3.20
2018-07-13T15:41:42.690Z,3.23
2018-07-13T15:44:18.115Z,4.60
2018-07-13T15:46:53.550Z,3.87
2018-07-13T15:49:28.792Z,4.07
2018-07-13T15:52:04.103Z,4.60
2018-07-13T15:54:39.388Z,4.00
2018-07-13T15:57:14.589Z,4.03
2018-07-13T15:59:49.702Z,3.60
2018-07-13T16:02:24.955Z,4.00
2018-07-13T16:05:00.314Z,4.40
2018-07-13T16:07:35.259Z,3.83
2018-07-13T16:10:10.696Z,3.40
2018-07-13T16:12:45.923Z,3.20
2018-07-13T16:15:21.858Z,3.10
2018-07-13T16:17:57.278Z,3.40
2018-07-13T16:20:32.514Z,3.47
2018-07-13T16:23:07.809Z,3.83
2018-07-13T16:25:43.097Z,4.03
2018-07-13T16:28:18.403Z,4.33
2018-07-13T16:30:53.611Z,3.80
2018-07-13T16:33:28.440Z,3.67
2018-07-13T16:36:03.943Z,3.57
2018-07-13T16:38:39.148Z,3.63
2018-07-13T16:41:14.607Z,3.87
2018-07-13T16:43:50.410Z,3.70
2018-07-13T16:46:25.267Z,3.43
2018-07-13T16:49:00.706Z,3.63
2018-07-13T16:51:36.659Z,4.20
2018-07-13T16:54:11.855Z,4.07
2018-07-13T16:56:47.883Z,3.50
2018-07-13T16:59:24.383Z,3.33
2018-07-13T17:01:59.997Z,3.40
2018-07-13T17:04:35.261Z,3.97
2018-07-13T17:07:10.413Z,3.47
2018-07-13T17:09:45.487Z,4.13
2018-07-13T17:12:20.574Z,4.10
2018-07-13T17:14:55.811Z,3.83
2018-07-13T17:17:31.103Z,3.77
2018-07-13T17:20:06.392Z,3.43
2018-07-13T17:22:41.732Z,3.13
2018-07-13T17:25:17.263Z,3.33
2018-07-13T17:27:52.476Z,3.80
2018-07-13T17:30:27.853Z,3.00
2018-07-13T17:33:03.429Z,3.13
2018-07-13T17:35:38.686Z,3.10
2018-07-13T17:38:14.121Z,3.40
2018-07-13T17:40:49.279Z,2.97
2018-07-13T17:43:25.075Z,2.93
2018-07-13T17:46:03.386Z,3.03
2018-07-13T17:48:38.811Z,3.50
2018-07-13T17:51:14.035Z,3.03
2018-07-13T17:53:49.278Z,3.70
2018-07-13T17:56:24.520Z,3.60
2018-07-13T17:59:00.279Z,3.33
2018-07-13T18:01:36.498Z,3.83
2018-07-13T18:04:11.259Z,3.60
2018-07-13T18:06:46.761Z,3.60
2018-07-13T18:09:22.117Z,3.30
2018-07-13T18:11:57.287Z,3.40
2018-07-13T18:14:32.237Z,3.63
2018-07-13T18:17:07.535Z,3.10
2018-07-13T18:19:42.840Z,3.43
2018-07-13T18:22:18.092Z,3.60
2018-07-13T18:24:53.376Z,3.63
2018-07-13T18:27:29.097Z,3.40
2018-07-13T18:30:04.361Z,4.03
2018-07-13T18:32:39.464Z,4.17
2018-07-13T18:35:14.860Z,3.80
2018-07-13T18:37:50.020Z,3.90
2018-07-13T18:40:25.259Z,3.70
2018-07-13T18:43:00.640Z,3.90
2018-07-13T18:45:35.948Z,4.00
2018-07-13T18:48:11.260Z,3.13
2018-07-13T18:50:46.693Z,3.07
2018-07-13T18:53:21.879Z,3.47
2018-07-13T18:55:57.018Z,3.20
2018-07-13T18:58:32.406Z,3.37
2018-07-13T19:01:07.851Z,2.93
2018-07-13T19:03:42.787Z,3.30
2018-07-13T19:06:18.316Z,3.37
2018-07-13T19:08:53.398Z,3.43
2018-07-13T19:11:28.784Z,2.97
2018-07-13T19:14:04.199Z,3.30
2018-07-13T19:16:39.480Z,2.97
2018-07-13T19:19:14.595Z,3.60
2018-07-13T19:21:49.788Z,3.37
2018-07-13T19:24:25.195Z,3.00
2018-07-13T19:27:00.459Z,2.90
2018-07-13T19:29:35.884Z,3.00
2018-07-13T19:32:11.211Z,2.93
2018-07-13T19:34:46.777Z,2.97
2018-07-13T19:37:22.124Z,3.20
2018-07-13T19:39:57.439Z,3.10
2018-07-13T19:42:33.013Z,3.27
2018-07-13T19:45:08.479Z,3.37
2018-07-13T19:47:43.871Z,3.00
2018-07-13T19:50:19.154Z,3.13
2018-07-13T19:52:54.381Z,2.97
2018-07-13T19:55:29.495Z,2.87
2018-07-13T19:58:04.680Z,3.10
2018-07-13T20:00:40.056Z,3.57
2018-07-13T20:03:15.305Z,2.73
2018-07-13T20:05:50.514Z,3.20
2018-07-13T20:08:26.423Z,3.30
2018-07-13T20:11:02.092Z,3.30
2018-07-13T20:13:37.455Z,3.57
2018-07-13T20:16:12.882Z,3.53
2018-07-13T20:18:48.674Z,3.50
2018-07-13T20:21:23.727Z,4.20
2018-07-13T20:23:58.968Z,3.30
2018-07-13T20:26:34.832Z,3.73
2018-07-13T20:29:09.895Z,4.40
2018-07-13T20:31:45.386Z,4.00
2018-07-13T20:34:21.035Z,4.37
2018-07-13T20:36:56.572Z,3.87
2018-07-13T20:39:32.042Z,3.40
2018-07-13T20:42:07.476Z,3.90
2018-07-13T20:44:42.923Z,4.10
2018-07-13T20:47:18.123Z,3.90
2018-07-13T20:49:53.418Z,4.60
2018-07-13T20:52:28.861Z,3.60
2018-07-13T20:55:04.983Z,4.20
2018-07-13T20:57:40.205Z,4.00
2018-07-13T21:00:15.583Z,4.17
2018-07-13T21:02:50.839Z,4.47
2018-07-13T21:05:26.110Z,4.03
2018-07-13T21:08:01.830Z,4.27
2018-07-13T21:10:37.661Z,3.87
2018-07-13T21:13:13.238Z,4.00
2018-07-13T21:15:49.034Z,4.23
2018-07-13T21:18:24.299Z,4.20
2018-07-13T21:20:59.884Z,4.50
2018-07-13T21:23:35.375Z,3.87
2018-07-13T21:26:10.846Z,4.07
2018-07-13T21:28:45.981Z,3.73
2018-07-13T21:31:21.388Z,4.40
2018-07-13T21:33:56.967Z,4.30
2018-07-13T21:36:32.155Z,4.40
2018-07-13T21:39:08.407Z,4.60
2018-07-13T21:41:44.720Z,3.87
2018-07-13T21:44:20.123Z,4.30
2018-07-13T21:46:55.825Z,4.20
2018-07-13T21:49:32.195Z,4.57
2018-07-13T21:52:07.533Z,4.47
2018-07-13T21:54:43.230Z,4.47
2018-07-13T21:57:18.746Z,4.53
2018-07-13T21:59:54.144Z,4.50
2018-07-13T22:02:29.675Z,4.00
2018-07-13T22:05:05.087Z,4.23
2018-07-13T22:07:40.745Z,4.17
2018-07-13T22:10:15.949Z,4.43
2018-07-13T22:12:51.553Z,4.20
2018-07-13T22:15:26.980Z,4.87
2018-07-13T22:18:02.594Z,4.07
2018-07-13T22:20:38.410Z,4.03
2018-07-13T22:23:13.857Z,4.30
2018-07-13T22:25:48.862Z,3.93
2018-07-13T22:28:24.063Z,4.50
2018-07-13T22:30:59.318Z,4.07
2018-07-13T22:33:34.622Z,3.77
2018-07-13T22:36:09.882Z,3.70
2018-07-13T22:38:45.103Z,3.80
2018-07-13T22:41:20.473Z,4.07
2018-07-13T22:43:55.671Z,3.50
2018-07-13T22:46:30.870Z,4.20
2018-07-13T22:49:06.128Z,4.10
2018-07-13T22:51:41.826Z,3.50
2018-07-13T22:54:17.284Z,4.20
2018-07-13T22:56:52.680Z,4.17
2018-07-13T22:59:28.001Z,4.13
2018-07-13T23:02:03.268Z,4.30
2018-07-13T23:04:38.408Z,4.73
2018-07-13T23:07:13.727Z,4.70
2018-07-13T23:09:49.061Z,4.50
2018-07-13T23:12:24.748Z,4.33
2018-07-13T23:14:59.870Z,4.60
2018-07-13T23:17:35.090Z,4.67
2018-07-13T23:20:10.331Z,4.57
2018-07-13T23:22:45.981Z,4.73
2018-07-13T23:25:21.479Z,5.00
2018-07-13T23:27:56.632Z,4.80
2018-07-13T23:30:31.975Z,4.63
2018-07-13T23:33:06.995Z,4.93
2018-07-13T23:35:42.758Z,5.43
2018-07-13T23:38:17.985Z,5.80
2018-07-13T23:40:53.648Z,5.47
2018-07-13T23:43:28.835Z,5.10
2018-07-13T23:46:04.254Z,5.67
2018-07-13T23:48:39.318Z,5.50
2018-07-13T23:51:14.596Z,6.53
2018-07-13T23:53:49.857Z,6.43
2018-07-13T23:56:25.424Z,5.87
2018-07-13T23:59:00.610Z,5.70
